Ashley Falls, Massachusetts
Current Conditions -  °F | °C
As of 6:25 AM on Friday 24 Oct 2014 (Local Time) from KPSF Reporting Station
Light Rain Light Rain  
Wind Chill:   Ceiling: 3500
Heat Index:   Visibility: 5mi
Dew Point:   Wind: 8mph
Humidity: 89%   Direction: 320°NW
Pressure: 29.78"   Gusts: NA
Location:  42.06°N, 73.34°W
Report Text: KPSF 241025Z AUTO 32007KT 5SM -RA BR SCT014 BKN035 OVC044 06/04 A2978 RMK AO2 P0003 T00610044
Loading
Personal Weather Stations






























Interactive Weather Map
Tropical Storm Tracking
New forecast layout! Learn more

10-Day Weather Forecast

Advertisements
Track Severe Weather on mobile